Time;durP1;ratioP1;P1;durP2;ratioP2;P2;SDS_P1;SDS_P2;PMS_P1;PMS_P2;Temp;Humidity;BMP_temperature;BMP_pressure;BME280_temperature;BME280_humidity;BME280_pressure;Samples;Min_cycle;Max_cycle;Signal;HPM_P1;HPM_P2
2022/07/31 00:01:13;;;;;;;17.20;15.50;;;;;;;18.75;100.00;92714.88;5091387;28;20173;-76
2022/07/31 00:03:39;;;;;;;17.33;15.73;;;;;;;18.80;100.00;92709.41;5090520;28;20231;-76
2022/07/31 00:06:04;;;;;;;17.13;15.43;;;;;;;18.63;100.00;92704.25;5091518;28;20174;-76
2022/07/31 00:08:29;;;;;;;18.10;16.20;;;;;;;18.59;100.00;92682.19;5090886;28;20224;-77
2022/07/31 00:10:55;;;;;;;17.20;15.67;;;;;;;18.73;100.00;92719.72;5091236;28;20190;-76
2022/07/31 00:13:21;;;;;;;18.37;16.73;;;;;;;18.61;100.00;92706.44;5090667;28;20236;-76
2022/07/31 00:15:46;;;;;;;18.57;16.83;;;;;;;18.48;100.00;92699.56;5092313;28;20181;-76
2022/07/31 00:18:12;;;;;;;17.90;16.00;;;;;;;18.38;100.00;92689.41;5090370;28;20230;-76
2022/07/31 00:20:37;;;;;;;17.83;16.07;;;;;;;18.26;100.00;92689.28;5090897;28;20235;-76
2022/07/31 00:23:02;;;;;;;18.80;15.73;;;;;;;18.15;100.00;92709.28;5090207;28;20271;-76
2022/07/31 00:25:29;;;;;;;18.50;16.80;;;;;;;18.10;100.00;92704.94;5090847;28;20243;-76
2022/07/31 00:27:55;;;;;;;18.30;16.60;;;;;;;18.17;100.00;92699.94;5091289;28;20252;-76
2022/07/31 00:30:21;;;;;;;17.40;15.77;;;;;;;17.86;100.00;92698.75;5091104;28;20218;-76
2022/07/31 00:32:46;;;;;;;18.23;15.60;;;;;;;18.06;100.00;92724.41;5081580;28;20226;-76
2022/07/31 00:35:15;;;;;;;19.43;17.47;;;;;;;17.95;100.00;92742.50;5071148;28;20212;-76
2022/07/31 00:37:41;;;;;;;18.53;16.93;;;;;;;17.84;100.00;92724.72;5071130;28;20290;-76
2022/07/31 00:40:07;;;;;;;18.70;16.77;;;;;;;17.97;100.00;92734.25;5070827;28;20178;-76
2022/07/31 00:42:33;;;;;;;16.77;15.07;;;;;;;17.77;100.00;92724.44;5070983;28;20243;-76
2022/07/31 00:44:59;;;;;;;16.77;15.17;;;;;;;17.66;100.00;92733.81;5069829;28;20181;-76
2022/07/31 00:47:24;;;;;;;17.50;15.97;;;;;;;17.81;100.00;92741.19;5071061;28;20226;-76
2022/07/31 00:49:50;;;;;;;17.90;16.30;;;;;;;17.88;100.00;92736.19;5071228;28;20174;-76
2022/07/31 00:52:15;;;;;;;18.93;17.07;;;;;;;17.82;100.00;92725.00;5070658;28;20232;-76
2022/07/31 00:54:41;;;;;;;18.37;16.67;;;;;;;17.70;100.00;92729.47;5070719;28;20213;-76
2022/07/31 00:57:06;;;;;;;18.30;16.50;;;;;;;17.67;100.00;92740.63;5070442;28;20251;-76
2022/07/31 00:59:32;;;;;;;16.63;15.03;;;;;;;17.49;100.00;92719.59;5070946;28;20197;-76
2022/07/31 01:01:58;;;;;;;16.50;14.80;;;;;;;17.23;100.00;92697.03;5070544;28;20246;-76
2022/07/31 01:04:25;;;;;;;17.27;15.27;;;;;;;17.54;100.00;92737.13;5069984;28;20182;-76
2022/07/31 01:06:51;;;;;;;16.30;14.87;;;;;;;17.66;100.00;92733.81;5070335;28;20250;-76
2022/07/31 01:09:16;;;;;;;16.40;14.83;;;;;;;17.55;100.00;92734.19;5068770;28;20200;-76
2022/07/31 01:12:11;;;;;;;14.17;12.87;;;;;;;17.68;100.00;92747.47;5070979;28;20253;-76
2022/07/31 01:14:40;;;;;;;15.13;13.80;;;;;;;17.66;100.00;92749.66;5094037;28;20256;-76
2022/07/31 01:17:08;;;;;;;15.37;14.07;;;;;;;17.56;100.00;92759.47;5068453;28;20196;-76
2022/07/31 01:19:43;;;;;;;15.37;14.10;;;;;;;17.50;100.00;92737.00;5071803;28;20173;-76
2022/07/31 01:22:45;;;;;;;14.40;13.30;;;;;;;17.55;100.00;92750.03;5069546;28;20181;-76
2022/07/31 01:25:13;;;;;;;14.87;13.57;;;;;;;17.27;100.00;92746.22;5068158;28;21452;-76
2022/07/31 01:27:57;;;;;;;14.57;13.03;;;;;;;17.14;100.00;92747.19;5076858;28;20231;-76
2022/07/31 01:30:28;;;;;;;14.37;12.97;;;;;;;16.78;100.00;92694.03;5087972;28;20252;-76
2022/07/31 01:32:56;;;;;;;14.07;12.90;;;;;;;16.90;100.00;92702.06;5090090;28;20237;-76
2022/07/31 01:35:27;;;;;;;15.10;13.83;;;;;;;17.27;100.00;92727.75;5089333;28;20201;-76
2022/07/31 01:37:57;;;;;;;14.30;13.20;;;;;;;17.26;100.00;92735.97;5089119;28;20284;-76
2022/07/31 01:40:43;;;;;;;14.43;13.03;;;;;;;17.15;100.00;92740.78;5089811;28;20279;-76
2022/07/31 01:43:13;;;;;;;15.70;14.37;;;;;;;17.30;100.00;92742.94;5089397;28;20226;-75
2022/07/31 01:45:42;;;;;;;15.20;14.00;;;;;;;17.29;100.00;92738.75;5089961;28;20177;-76
2022/07/31 01:48:12;;;;;;;14.57;13.47;;;;;;;17.01;100.00;92707.81;5089423;28;20236;-76
2022/07/31 01:50:39;;;;;;;15.63;14.23;;;;;;;16.98;100.00;92703.91;5089826;28;20185;-76
2022/07/31 01:53:06;;;;;;;15.70;14.23;;;;;;;16.83;100.00;92699.16;5088951;28;20216;-76
2022/07/31 01:55:33;;;;;;;13.50;12.30;;;;;;;16.93;100.00;92703.31;5089648;28;20192;-77
2022/07/31 01:58:00;;;;;;;13.93;12.83;;;;;;;16.80;100.00;92712.97;5088419;28;20225;-76
2022/07/31 02:00:26;;;;;;;14.63;13.43;;;;;;;17.16;100.00;92723.91;5089584;28;20173;-76
2022/07/31 02:02:54;;;;;;;13.10;12.10;;;;;;;17.22;100.00;92724.47;5088918;28;20230;-76
2022/07/31 02:05:21;;;;;;;15.57;14.23;;;;;;;17.08;100.00;92722.06;5089638;28;20719;-75
2022/07/31 02:07:48;;;;;;;14.07;12.87;;;;;;;17.03;100.00;92732.78;5088009;28;20224;-76
2022/07/31 02:10:16;;;;;;;14.73;13.43;;;;;;;17.02;100.00;92725.97;5089209;28;20205;-76
2022/07/31 02:12:43;;;;;;;13.67;12.23;;;;;;;17.14;100.00;92722.66;5089028;28;20263;-76
2022/07/31 02:15:11;;;;;;;14.57;13.30;;;;;;;16.96;100.00;92708.75;5089544;28;20206;-76
2022/07/31 02:17:38;;;;;;;13.33;12.33;;;;;;;17.12;100.00;92709.78;5088576;28;20296;-76
2022/07/31 02:20:06;;;;;;;12.50;11.50;;;;;;;17.27;100.00;92732.25;5089991;28;20204;-76
2022/07/31 02:22:33;;;;;;;13.60;12.60;;;;;;;17.08;100.00;92729.97;5078741;28;20242;-76
2022/07/31 02:24:59;;;;;;;13.33;12.33;;;;;;;17.08;100.00;92716.00;5063147;28;20191;-76
2022/07/31 02:27:27;;;;;;;14.80;13.60;;;;;;;17.17;100.00;92733.34;5063800;28;20221;-76
2022/07/31 02:29:54;;;;;;;13.50;12.20;;;;;;;17.12;100.00;92730.88;5068173;28;20227;-76
2022/07/31 02:32:20;;;;;;;14.07;13.03;;;;;;;16.82;100.00;92705.53;5072823;28;20228;-76
2022/07/31 02:34:46;;;;;;;12.60;11.53;;;;;;;17.11;100.00;92734.63;5089562;28;20208;-76
2022/07/31 02:37:14;;;;;;;14.20;12.73;;;;;;;17.17;100.00;92730.72;5085353;28;20221;-76
2022/07/31 02:39:40;;;;;;;14.07;12.77;;;;;;;17.11;100.00;92726.69;5069255;28;20193;-76
2022/07/31 02:42:06;;;;;;;13.70;12.40;;;;;;;17.05;100.00;92735.88;5070968;28;20178;-76
2022/07/31 02:44:33;;;;;;;13.50;12.37;;;;;;;16.96;100.00;92721.94;5089125;28;20196;-76
2022/07/31 02:47:04;;;;;;;13.67;12.27;;;;;;;16.85;100.00;92706.75;5087549;28;20637;-76
2022/07/31 02:49:30;;;;;;;13.67;12.57;;;;;;;16.99;100.00;92741.63;5088934;28;20263;-75
2022/07/31 02:51:56;;;;;;;13.00;11.90;;;;;;;17.16;100.00;92745.00;5088791;28;20202;-76
2022/07/31 02:54:25;;;;;;;13.87;12.67;;;;;;;17.23;100.00;92742.63;5089126;28;20216;-76
2022/07/31 02:56:52;;;;;;;12.27;11.37;;;;;;;17.25;100.00;92753.66;5088889;28;20188;-76
2022/07/31 02:59:17;;;;;;;13.87;12.87;;;;;;;17.20;100.00;92737.22;5112675;28;20216;-75
2022/07/31 03:01:43;;;;;;;13.87;12.77;;;;;;;17.30;100.00;92729.75;5089666;28;20667;-76
2022/07/31 03:04:09;;;;;;;13.57;12.50;;;;;;;17.37;100.00;92737.16;5087762;28;20267;-76
2022/07/31 03:06:35;;;;;;;13.47;12.40;;;;;;;17.65;100.00;92740.94;5088013;28;20211;-76
2022/07/31 03:09:01;;;;;;;15.20;13.90;;;;;;;17.62;100.00;92738.19;5086975;28;20246;-76
2022/07/31 03:11:26;;;;;;;16.70;14.07;;;;;;;17.50;100.00;92713.25;5088123;28;20173;-76
2022/07/31 03:13:54;;;;;;;15.57;14.17;;;;;;;17.76;100.00;92738.75;5087962;28;20262;-75
2022/07/31 03:16:21;;;;;;;19.93;14.90;;;;;;;17.65;100.00;92743.59;5088861;28;20189;-76
2022/07/31 03:18:47;;;;;;;15.03;13.73;;;;;;;17.91;100.00;92757.47;5089015;28;20212;-76
2022/07/31 03:21:13;;;;;;;16.10;14.60;;;;;;;17.89;100.00;92757.00;5092955;28;20219;-76
2022/07/31 03:23:39;;;;;;;16.00;14.50;;;;;;;17.87;100.00;92755.78;5091136;28;20220;-76
2022/07/31 03:26:05;;;;;;;15.47;14.23;;;;;;;17.80;100.00;92739.63;5092527;28;20176;-75
2022/07/31 03:28:32;;;;;;;19.43;17.27;;;;;;;17.94;100.00;92766.59;5091736;28;20289;-76
2022/07/31 03:30:57;;;;;;;22.93;18.70;;;;;;;17.73;100.00;92760.50;5092736;28;20216;-75
2022/07/31 03:33:23;;;;;;;20.40;18.17;;;;;;;17.65;100.00;92727.00;5091161;28;20249;-76
2022/07/31 03:35:49;;;;;;;16.47;14.77;;;;;;;17.91;100.00;92765.38;5092773;28;20187;-76
2022/07/31 03:38:14;;;;;;;16.97;15.47;;;;;;;17.91;100.00;92746.09;5092011;28;20221;-76
2022/07/31 03:40:39;;;;;;;18.13;15.63;;;;;;;17.97;100.00;92766.75;5092497;28;20186;-76
2022/07/31 03:43:05;;;;;;;18.63;16.73;;;;;;;18.09;100.00;92768.69;5091843;28;20217;-76
2022/07/31 03:45:33;;;;;;;18.30;16.57;;;;;;;18.12;100.00;92768.03;5092594;28;20318;-76
2022/07/31 03:47:59;;;;;;;18.53;16.50;;;;;;;18.03;100.00;92759.41;5091253;28;20262;-76
2022/07/31 03:50:25;;;;;;;21.53;18.67;;;;;;;17.75;100.00;92753.03;5092429;28;20207;-76
2022/07/31 03:52:51;;;;;;;20.97;18.00;;;;;;;17.98;100.00;92778.09;5081855;28;20221;-76
2022/07/31 03:55:17;;;;;;;21.93;19.47;;;;;;;18.00;100.00;92771.38;5071846;28;20189;-76
2022/07/31 03:57:43;;;;;;;19.50;17.40;;;;;;;18.13;100.00;92764.31;5078897;28;20236;-76
2022/07/31 04:00:09;;;;;;;19.70;17.80;;;;;;;18.17;100.00;92773.16;5092304;28;20236;-76
2022/07/31 04:02:35;;;;;;;20.73;18.63;;;;;;;18.20;100.00;92780.44;5090840;28;20292;-76
2022/07/31 04:05:01;;;;;;;22.50;19.20;;;;;;;18.20;100.00;92768.00;5091805;28;20188;-76
2022/07/31 04:07:26;;;;;;;24.10;19.17;;;;;;;18.31;100.00;92784.25;5091409;28;21016;-75
2022/07/31 04:09:52;;;;;;;21.40;19.20;;;;;;;18.11;100.00;92769.16;5092055;28;20653;-76
2022/07/31 04:12:18;;;;;;;23.47;20.37;;;;;;;17.96;100.00;92759.13;5090654;28;20240;-76
2022/07/31 04:14:43;;;;;;;28.63;20.70;;;;;;;18.00;100.00;92775.88;5092080;28;20219;-76
2022/07/31 04:17:09;;;;;;;23.80;20.50;;;;;;;18.16;100.00;92780.31;5091292;28;20215;-76
2022/07/31 04:19:34;;;;;;;22.60;19.83;;;;;;;18.11;100.00;92777.06;5092302;28;20193;-75
2022/07/31 04:22:00;;;;;;;24.53;20.60;;;;;;;17.88;100.00;92762.59;5091227;28;20200;-76
2022/07/31 04:24:25;;;;;;;25.17;21.23;;;;;;;17.95;100.00;92779.50;5091612;28;20177;-76
2022/07/31 04:26:53;;;;;;;23.43;20.87;;;;;;;17.94;100.00;92782.44;5090347;28;20197;-75
2022/07/31 04:29:19;;;;;;;23.97;21.40;;;;;;;17.98;100.00;92762.25;5089333;28;20231;-76
2022/07/31 04:31:45;;;;;;;21.40;19.30;;;;;;;18.19;100.00;92781.53;5091479;28;20205;-76
2022/07/31 04:34:11;;;;;;;20.07;17.33;;;;;;;18.42;100.00;92778.31;5091838;28;20221;-73
2022/07/31 04:36:36;;;;;;;18.30;16.43;;;;;;;18.54;100.00;92780.22;5090209;28;20184;-74
2022/07/31 04:39:03;;;;;;;17.03;15.50;;;;;;;18.50;99.89;92774.03;5091196;28;20229;-74
2022/07/31 04:41:29;;;;;;;17.50;15.03;;;;;;;19.13;96.72;92774.44;5090390;28;20189;-75
2022/07/31 04:43:56;;;;;;;16.13;14.73;;;;;;;18.95;97.08;92774.91;5091122;28;20224;-74
2022/07/31 04:46:22;;;;;;;17.20;15.60;;;;;;;18.74;97.35;92774.19;5091292;28;20241;-74
2022/07/31 04:48:48;;;;;;;16.63;14.80;;;;;;;19.12;94.53;92758.88;5088930;28;20236;-74
2022/07/31 04:51:17;;;;;;;15.63;14.33;;;;;;;19.02;95.21;92764.56;5090338;28;20216;-75
2022/07/31 04:53:44;;;;;;;15.60;14.30;;;;;;;19.36;95.15;92764.28;5089992;28;20238;-74
2022/07/31 04:58:53;;;;;;;14.27;13.07;;;;;;;19.27;95.92;92760.88;5090555;28;20370;-74
2022/07/31 05:01:18;;;;;;;15.20;13.70;;;;;;;19.38;96.52;92772.66;5089678;28;20186;-74
2022/07/31 05:03:44;;;;;;;15.53;14.13;;;;;;;19.36;96.68;92784.69;5089925;28;20229;-75
2022/07/31 05:06:10;;;;;;;14.93;13.73;;;;;;;19.20;96.86;92792.44;5113503;27;20229;-74
2022/07/31 05:08:36;;;;;;;14.87;13.63;;;;;;;19.14;95.99;92786.56;5089337;28;20234;-75
2022/07/31 05:13:46;;;;;;;13.57;12.33;;;;;;;19.10;94.34;92783.03;5067540;28;20900;-75
2022/07/31 05:16:11;;;;;;;14.67;13.47;;;;;;;19.03;94.22;92788.09;5062110;28;20366;-75
2022/07/31 05:18:37;;;;;;;12.97;11.97;;;;;;;18.95;93.55;92780.22;5068398;28;20215;-75
2022/07/31 05:21:02;;;;;;;13.10;12.10;;;;;;;19.15;93.31;92774.88;5070712;28;20200;-77
2022/07/31 05:23:28;;;;;;;13.47;12.40;;;;;;;18.84;93.62;92776.41;5068953;28;20269;-75
2022/07/31 05:25:53;;;;;;;12.43;11.43;;;;;;;18.86;93.15;92780.28;5070387;28;20257;-74
2022/07/31 05:28:18;;;;;;;13.90;12.83;;;;;;;18.88;92.86;92785.25;5080468;28;20221;-74
2022/07/31 05:30:44;;;;;;;13.20;12.20;;;;;;;18.76;92.30;92782.53;5090989;28;20190;-74
2022/07/31 05:33:10;;;;;;;15.80;14.33;;;;;;;18.88;90.48;92769.38;5089267;28;20230;-75
2022/07/31 05:35:35;;;;;;;18.07;16.13;;;;;;;18.95;88.58;92759.03;5089358;28;20211;-75
2022/07/31 05:38:00;;;;;;;18.83;15.40;;;;;;;18.96;89.27;92771.16;5087396;28;20284;-74
2022/07/31 05:40:27;;;;;;;17.93;15.27;;;;;;;18.92;88.42;92783.50;5089227;28;20225;-74
2022/07/31 05:42:54;;;;;;;19.60;17.37;;;;;;;19.29;87.84;92787.84;5079546;28;20227;-74
2022/07/31 05:45:19;;;;;;;19.03;16.37;;;;;;;19.73;85.40;92791.56;5068416;28;20201;-74
2022/07/31 05:47:44;;;;;;;20.40;17.33;;;;;;;20.23;83.49;92786.75;5075928;28;20237;-74
2022/07/31 05:50:10;;;;;;;19.20;16.87;;;;;;;20.43;80.02;92781.31;5089585;28;20189;-74
2022/07/31 05:52:36;;;;;;;17.37;15.67;;;;;;;20.47;78.64;92771.59;5088370;28;20241;-74
2022/07/31 05:55:02;;;;;;;19.23;17.07;;;;;;;21.51;75.32;92784.72;5088471;28;20178;-73
2022/07/31 05:57:27;;;;;;;16.92;15.13;;;;;;;22.77;70.71;92795.72;5089489;28;20225;-73
2022/07/31 05:59:52;;;;;;;16.85;15.15;;;;;;;23.87;65.01;92799.38;5089805;28;20202;-74
2022/07/31 06:02:18;;;;;;;16.15;14.45;;;;;;;26.48;55.38;92785.47;5088088;28;20246;-73
2022/07/31 06:04:43;;;;;;;15.07;13.57;;;;;;;28.43;49.53;92802.69;5089175;28;20195;-74
2022/07/31 06:07:08;;;;;;;15.40;13.75;;;;;;;28.14;49.80;92785.78;5089124;28;20194;-80
2022/07/31 06:09:34;;;;;;;14.73;13.32;;;;;;;30.64;43.74;92809.16;5085127;28;20196;-72
2022/07/31 06:11:59;;;;;;;13.10;12.00;;;;;;;30.21;45.19;92805.25;5088795;28;20192;-74
2022/07/31 06:14:25;;;;;;;13.82;12.60;;;;;;;31.85;39.89;92813.69;5086567;28;20215;-74
2022/07/31 06:16:51;;;;;;;13.32;12.20;;;;;;;31.59;40.42;92808.97;5088523;28;20282;-75
2022/07/31 06:19:19;;;;;;;15.52;14.05;;;;;;;32.41;38.30;92793.22;5090522;28;20184;-74
2022/07/31 06:21:44;;;;;;;14.68;13.35;;;;;;;30.93;41.52;92803.13;5088057;28;20195;-74
2022/07/31 06:24:10;;;;;;;14.52;13.18;;;;;;;30.97;40.70;92803.09;5088141;28;20276;-73
2022/07/31 06:26:36;;;;;;;15.52;14.07;;;;;;;29.65;43.93;92807.06;5089640;28;20331;-72
2022/07/31 06:29:02;;;;;;;14.95;13.55;;;;;;;29.47;42.82;92790.22;5087283;28;20220;-74
2022/07/31 06:31:27;;;;;;;15.05;13.65;;;;;;;29.12;45.20;92784.97;5088254;28;20193;-73
2022/07/31 06:33:53;;;;;;;16.85;15.35;;;;;;;26.61;51.91;92757.25;5086191;28;20252;-75
2022/07/31 06:36:19;;;;;;;17.42;15.63;;;;;;;25.26;57.48;92780.47;5086260;28;20188;-71
2022/07/31 06:38:44;;;;;;;16.13;14.65;;;;;;;24.75;58.04;92771.41;5088404;28;20283;-77
2022/07/31 06:41:10;;;;;;;15.43;14.02;;;;;;;23.67;62.66;92761.31;5088363;28;20185;-76
2022/07/31 06:43:35;;;;;;;17.23;15.43;;;;;;;23.14;65.88;92759.59;5086052;28;20224;-76
2022/07/31 06:46:01;;;;;;;16.20;14.63;;;;;;;23.14;65.92;92751.59;5087647;28;20191;-78
2022/07/31 06:48:26;;;;;;;16.60;15.02;;;;;;;22.79;68.81;92782.81;5086637;28;20222;-74
2022/07/31 06:50:51;;;;;;;17.05;15.25;;;;;;;22.34;70.22;92779.91;5088006;28;20250;-76
2022/07/31 06:53:17;;;;;;;18.15;16.35;;;;;;;21.82;72.68;92772.22;5087713;28;20222;-74
2022/07/31 06:55:42;;;;;;;17.15;15.35;;;;;;;21.80;72.72;92769.16;5091374;28;20199;-72
2022/07/31 06:58:07;;;;;;;17.67;15.88;;;;;;;21.73;72.50;92768.16;5090868;28;20226;-74
2022/07/31 07:00:33;;;;;;;18.35;15.77;;;;;;;21.92;72.32;92776.28;5092153;28;20200;-73
2022/07/31 07:02:58;;;;;;;19.05;17.05;;;;;;;21.45;73.25;92762.16;5091269;28;20243;-73
2022/07/31 07:05:24;;;;;;;19.30;17.30;;;;;;;21.99;71.48;92763.16;5091464;28;20192;-74
2022/07/31 07:07:49;;;;;;;17.45;15.68;;;;;;;21.85;71.71;92773.44;5091744;28;20235;-73
2022/07/31 07:10:14;;;;;;;19.75;15.52;;;;;;;21.92;71.62;92776.28;5092293;28;20188;-71
2022/07/31 07:12:40;;;;;;;16.73;15.02;;;;;;;21.74;72.71;92781.13;5084889;28;20229;-73
2022/07/31 07:15:06;;;;;;;21.10;16.02;;;;;;;21.93;71.71;92777.81;5067029;28;20207;-72
2022/07/31 07:17:31;;;;;;;19.58;16.60;;;;;;;21.77;74.39;92772.50;5075441;28;20249;-73
2022/07/31 07:19:57;;;;;;;18.25;16.33;;;;;;;21.47;75.29;92781.97;5089731;28;20203;-73
2022/07/31 07:22:22;;;;;;;19.42;17.10;;;;;;;21.74;75.93;92775.03;5092823;28;20238;-73
2022/07/31 07:24:47;;;;;;;18.88;16.00;;;;;;;21.89;74.83;92772.41;5090645;28;20206;-74
2022/07/31 07:27:13;;;;;;;20.65;17.83;;;;;;;22.31;74.06;92788.59;5086467;28;20242;-74
2022/07/31 07:29:38;;;;;;;19.48;17.35;;;;;;;22.10;75.58;92788.13;5069978;28;20236;-75
2022/07/31 07:32:04;;;;;;;18.42;16.55;;;;;;;21.66;74.41;92736.91;5070115;28;20178;-74
2022/07/31 07:34:29;;;;;;;19.83;17.27;;;;;;;22.19;73.79;92802.00;5069900;28;20255;-75
2022/07/31 07:36:55;;;;;;;20.10;16.70;;;;;;;22.73;71.98;92799.41;5069933;28;20201;-73
2022/07/31 07:39:21;;;;;;;21.02;17.92;;;;;;;22.49;72.41;92784.41;5089638;28;20197;-74
2022/07/31 07:41:47;;;;;;;19.00;17.20;;;;;;;22.83;71.23;92807.66;5089078;28;20202;-75
2022/07/31 07:44:12;;;;;;;17.15;15.35;;;;;;;22.57;71.24;92807.44;5091480;28;20246;-75
2022/07/31 07:46:37;;;;;;;18.23;16.52;;;;;;;22.73;72.93;92805.53;5092134;28;20297;-75
2022/07/31 07:49:03;;;;;;;18.38;16.58;;;;;;;22.76;73.13;92810.16;5090626;28;20310;-77
2022/07/31 07:51:28;;;;;;;18.15;16.35;;;;;;;22.43;74.66;92798.38;5091756;28;20190;-77
2022/07/31 07:53:54;;;;;;;17.55;15.70;;;;;;;22.73;73.46;92802.09;5091292;28;20236;-76
2022/07/31 07:56:20;;;;;;;18.60;15.77;;;;;;;22.90;73.34;92794.47;5092130;28;20194;-77
2022/07/31 07:58:47;;;;;;;16.90;15.18;;;;;;;22.96;71.74;92782.41;5103096;28;20303;-76
2022/07/31 08:01:13;;;;;;;18.23;16.33;;;;;;;22.74;74.44;92795.66;5090756;28;20257;-77
2022/07/31 08:03:38;;;;;;;18.48;15.77;;;;;;;22.49;74.39;92805.72;5074924;28;20223;-76
2022/07/31 08:06:04;;;;;;;15.25;13.65;;;;;;;22.29;74.90;92808.69;5068807;28;20196;-76
2022/07/31 08:08:29;;;;;;;16.70;15.00;;;;;;;22.56;72.88;92811.22;5098485;28;20226;-73
2022/07/31 08:10:55;;;;;;;15.25;13.63;;;;;;;22.99;71.62;92819.00;5071631;28;20297;-75
2022/07/31 08:13:21;;;;;;;15.18;13.57;;;;;;;22.37;73.76;92813.81;5083124;28;20227;-71
2022/07/31 08:15:46;;;;;;;15.68;14.20;;;;;;;22.23;74.24;92792.19;5090824;28;20236;-73
2022/07/31 08:18:12;;;;;;;13.75;12.35;;;;;;;22.39;74.63;92832.88;5089842;28;20248;-72
2022/07/31 08:20:37;;;;;;;13.90;12.65;;;;;;;22.40;74.19;92834.41;5090485;28;20186;-71
2022/07/31 08:23:03;;;;;;;14.57;13.18;;;;;;;22.20;75.57;92838.88;5089998;28;20251;-74
2022/07/31 08:25:28;;;;;;;14.73;13.20;;;;;;;22.41;75.20;92832.53;5089985;28;20234;-75
2022/07/31 08:27:53;;;;;;;14.10;12.82;;;;;;;21.77;76.35;92835.53;5088010;28;20269;-74
2022/07/31 08:30:19;;;;;;;14.73;13.23;;;;;;;21.81;76.55;92839.03;5089223;28;20213;-74
2022/07/31 08:32:44;;;;;;;14.68;13.15;;;;;;;22.31;75.95;92825.84;5088758;28;20241;-74
2022/07/31 08:35:10;;;;;;;14.73;13.23;;;;;;;21.31;78.55;92836.94;5089645;28;20194;-74
2022/07/31 08:37:35;;;;;;;14.00;12.80;;;;;;;21.37;78.33;92802.94;5089373;28;20234;-75
2022/07/31 08:40:00;;;;;;;16.40;14.57;;;;;;;21.94;77.63;92846.63;5089966;28;20190;-74
2022/07/31 08:42:26;;;;;;;16.23;14.63;;;;;;;22.08;75.88;92840.88;5083421;28;20282;-74
2022/07/31 08:44:51;;;;;;;15.05;13.55;;;;;;;21.76;76.98;92836.66;5069169;28;20200;-74
2022/07/31 08:47:17;;;;;;;15.63;14.02;;;;;;;22.48;74.35;92844.09;5072771;28;20240;-75
2022/07/31 08:49:44;;;;;;;14.20;12.93;;;;;;;22.24;75.23;92826.44;5090395;28;20190;-74
2022/07/31 08:52:16;;;;;;;14.13;12.82;;;;;;;23.04;72.13;92847.25;5088765;28;20245;-74
2022/07/31 08:54:43;;;;;;;14.35;12.95;;;;;;;23.22;70.70;92838.50;5087264;28;20219;-74
2022/07/31 08:57:09;;;;;;;13.32;12.15;;;;;;;23.68;69.71;92842.09;5088706;28;20251;-74
2022/07/31 08:59:36;;;;;;;13.80;12.60;;;;;;;23.00;71.07;92841.88;5088986;28;20187;-74
2022/07/31 09:02:03;;;;;;;14.43;13.07;;;;;;;23.13;69.76;92831.84;5089504;28;20680;-73
2022/07/31 09:04:30;;;;;;;13.70;12.52;;;;;;;23.12;69.00;92839.06;5089507;28;20258;-71
2022/07/31 09:06:58;;;;;;;14.10;12.90;;;;;;;23.42;68.42;92826.75;5088630;28;20209;-74
2022/07/31 09:09:24;;;;;;;14.10;12.90;;;;;;;23.06;68.04;92827.16;5089181;28;20172;-74
2022/07/31 09:11:53;;;;;;;15.45;13.20;;;;;;;22.64;70.44;92841.44;5087249;28;20198;-74
2022/07/31 09:14:25;;;;;;;15.35;14.00;;;;;;;22.71;70.27;92849.59;5089427;28;20222;-73
2022/07/31 09:16:51;;;;;;;15.13;13.73;;;;;;;22.35;71.06;92831.25;5088492;28;20201;-75
2022/07/31 09:19:16;;;;;;;17.38;15.60;;;;;;;23.44;68.82;92839.75;5088545;28;20190;-72
2022/07/31 09:21:45;;;;;;;15.35;13.88;;;;;;;23.70;66.06;92848.59;5087016;28;20201;-73
2022/07/31 09:24:23;;;;;;;16.42;14.73;;;;;;;23.86;66.03;92839.75;5086155;28;20227;-74
2022/07/31 09:26:53;;;;;;;16.27;14.68;;;;;;;24.00;64.59;92834.69;5088157;28;20184;-73
2022/07/31 09:29:18;;;;;;;17.27;15.48;;;;;;;24.31;63.86;92813.09;5086978;28;20235;-73
2022/07/31 09:31:43;;;;;;;19.48;16.90;;;;;;;24.20;64.74;92834.28;5087367;28;20188;-72
2022/07/31 09:34:09;;;;;;;16.08;14.48;;;;;;;23.82;66.47;92836.22;5088681;28;20230;-74
2022/07/31 09:36:34;;;;;;;18.27;15.90;;;;;;;23.21;68.25;92812.97;5089496;28;20188;-73
2022/07/31 09:38:59;;;;;;;22.05;17.42;;;;;;;22.71;69.33;92831.72;5087498;28;20227;-76
2022/07/31 09:41:25;;;;;;;17.23;15.50;;;;;;;22.67;66.74;92828.22;5089652;28;20204;-75
2022/07/31 09:44:04;;;;;;;19.40;17.33;;;;;;;22.86;65.27;92827.47;5088003;28;20253;-75
2022/07/31 09:46:40;;;;;;;16.63;14.93;;;;;;;22.90;66.82;92823.75;5088494;28;20187;-73
2022/07/31 09:49:06;;;;;;;16.80;15.23;;;;;;;23.14;64.43;92820.06;5085660;28;20640;-72
2022/07/31 09:51:43;;;;;;;18.33;16.48;;;;;;;23.76;61.97;92822.44;5088880;28;20198;-72
2022/07/31 09:54:38;;;;;;;18.27;16.40;;;;;;;24.05;61.50;92821.81;5086957;28;20260;-74
2022/07/31 09:57:11;;;;;;;17.30;15.63;;;;;;;24.37;58.55;92814.31;5075072;28;20223;-71
2022/07/31 09:59:37;;;;;;;16.30;14.80;;;;;;;24.44;59.53;92820.53;5089664;28;20199;-72
2022/07/31 10:02:04;;;;;;;18.88;16.17;;;;;;;23.36;61.58;92790.09;5088144;28;20205;-74
2022/07/31 10:04:31;;;;;;;17.10;15.27;;;;;;;23.34;62.07;92822.41;5088990;28;20207;-75
2022/07/31 10:06:57;;;;;;;18.40;15.98;;;;;;;22.82;63.44;92818.66;5088283;28;20209;-73
2022/07/31 10:09:24;;;;;;;18.63;16.73;;;;;;;23.33;62.39;92815.53;5087690;28;20192;-73
2022/07/31 10:11:52;;;;;;;17.02;15.23;;;;;;;22.89;62.61;92802.81;5088804;28;20198;-73
2022/07/31 10:14:22;;;;;;;28.48;18.67;;;;;;;22.70;63.10;92808.09;5089047;28;20225;-73
2022/07/31 10:16:53;;;;;;;20.98;16.58;;;;;;;22.84;63.11;92811.06;5088834;28;20197;-72
2022/07/31 10:19:19;;;;;;;33.03;30.48;;;;;;;22.91;61.36;92811.97;5088341;28;20218;-72
2022/07/31 10:21:52;;;;;;;21.42;19.25;;;;;;;22.79;63.34;92806.00;5088375;28;20196;-71
2022/07/31 10:24:21;;;;;;;18.98;17.17;;;;;;;22.84;62.34;92761.25;5088345;28;20196;-73
2022/07/31 10:26:47;;;;;;;18.88;17.02;;;;;;;23.61;63.69;92796.66;5087789;28;20207;-71
2022/07/31 10:29:15;;;;;;;23.88;21.65;;;;;;;23.93;62.83;92803.28;5086916;28;20550;-71
2022/07/31 10:31:41;;;;;;;19.80;17.80;;;;;;;23.92;62.27;92771.63;5087331;28;20220;-72
2022/07/31 10:34:06;;;;;;;18.40;16.60;;;;;;;23.81;61.87;92792.03;5089612;28;20298;-72
2022/07/31 10:36:36;;;;;;;17.05;15.45;;;;;;;23.24;62.76;92785.63;5087262;28;20266;-72
2022/07/31 10:39:23;;;;;;;19.05;17.05;;;;;;;23.12;62.43;92751.16;5087785;28;20232;-72
2022/07/31 10:42:06;;;;;;;18.52;16.00;;;;;;;23.35;62.89;92783.97;5089647;28;20194;-72
2022/07/31 10:44:54;;;;;;;22.48;18.48;;;;;;;23.46;63.62;92787.59;5088587;28;20205;-72
2022/07/31 10:47:20;;;;;;;75.20;70.85;;;;;;;23.65;62.03;92782.25;5088551;28;20251;-72
2022/07/31 10:49:48;;;;;;;20.48;17.42;;;;;;;23.72;62.99;92779.69;5088258;28;20220;-71
2022/07/31 10:52:25;;;;;;;18.50;16.45;;;;;;;23.58;62.29;92784.78;5087378;28;20232;-71
2022/07/31 10:54:51;;;;;;;17.92;16.23;;;;;;;23.63;61.62;92768.50;5088090;28;20283;-72
2022/07/31 10:57:23;;;;;;;19.30;17.27;;;;;;;23.65;62.57;92771.59;5088300;28;20222;-73
2022/07/31 10:59:49;;;;;;;18.83;16.95;;;;;;;23.64;62.94;92763.94;5085653;28;20199;-74
2022/07/31 11:02:30;;;;;;;18.40;16.50;;;;;;;23.84;62.56;92761.97;5087333;28;20831;-74
2022/07/31 11:05:26;;;;;;;17.02;15.32;;;;;;;23.97;61.58;92758.03;5088422;28;20210;-73
2022/07/31 11:08:01;;;;;;;18.33;16.52;;;;;;;24.09;61.72;92774.63;5080496;28;21142;-73
2022/07/31 11:10:27;;;;;;;17.55;15.95;;;;;;;23.70;61.97;92765.94;5087059;28;20311;-74
2022/07/31 11:13:03;;;;;;;17.55;15.80;;;;;;;23.39;62.64;92774.13;5087068;28;20230;-74
2022/07/31 11:15:29;;;;;;;17.17;15.40;;;;;;;23.34;64.03;92771.78;5086110;28;20183;-73
2022/07/31 11:17:55;;;;;;;15.90;14.50;;;;;;;23.13;61.94;92771.34;5086959;28;20291;-72
2022/07/31 11:20:24;;;;;;;16.05;14.55;;;;;;;23.07;62.82;92770.09;5087930;28;20203;-73